Time;durP1;ratioP1;P1;durP2;ratioP2;P2;SDS_P1;SDS_P2;PMS_P1;PMS_P2;Temp;Humidity;BMP_temperature;BMP_pressure;BME280_temperature;BME280_humidity;BME280_pressure;Samples;Min_cycle;Max_cycle;Signal;HPM_P1;HPM_P2
2022/03/21 00:00:42;;;;;;;44.35;22.30;;;6.90;99.90;;;;;;5066409;28;20126;-69
2022/03/21 00:03:10;;;;;;;41.70;22.88;;;6.90;99.90;;;;;;5052374;28;20076;-69
2022/03/21 00:05:36;;;;;;;38.15;22.45;;;6.90;99.90;;;;;;5052850;28;20049;-69
2022/03/21 00:08:02;;;;;;;49.80;24.13;;;6.90;99.90;;;;;;5052963;28;20041;-69
2022/03/21 00:10:34;;;;;;;39.83;22.13;;;6.90;99.90;;;;;;5052545;28;20048;-69
2022/03/21 00:13:01;;;;;;;40.53;20.98;;;6.80;99.90;;;;;;5052449;28;20068;-69
2022/03/21 00:15:29;;;;;;;43.55;21.70;;;6.80;99.90;;;;;;5052625;28;20037;-69
2022/03/21 00:17:55;;;;;;;36.42;20.20;;;6.90;99.90;;;;;;5052942;28;20091;-69
2022/03/21 00:20:21;;;;;;;36.50;19.75;;;6.90;99.90;;;;;;5052868;28;20040;-69
2022/03/21 00:22:46;;;;;;;40.05;19.83;;;6.90;99.90;;;;;;5052206;28;20381;-69
2022/03/21 00:25:12;;;;;;;37.20;19.48;;;6.90;99.90;;;;;;5062507;28;20093;-69
2022/03/21 00:27:38;;;;;;;32.65;18.27;;;6.90;99.90;;;;;;5076145;28;20079;-69
2022/03/21 00:30:09;;;;;;;31.15;17.83;;;6.90;99.90;;;;;;5065997;28;20124;-69
2022/03/21 00:32:35;;;;;;;34.92;17.05;;;6.90;99.90;;;;;;5053638;28;20121;-69
2022/03/21 00:35:01;;;;;;;35.95;16.83;;;6.90;99.90;;;;;;5052994;28;20095;-69
2022/03/21 00:37:28;;;;;;;29.20;16.38;;;6.90;99.90;;;;;;5052689;28;20045;-69
2022/03/21 00:39:54;;;;;;;29.38;15.60;;;6.90;99.90;;;;;;5052381;28;20382;-69
2022/03/21 00:42:21;;;;;;;27.33;15.57;;;6.90;99.90;;;;;;5051897;28;20041;-69
2022/03/21 00:44:47;;;;;;;23.63;13.65;;;6.90;99.90;;;;;;5051162;28;20069;-69
2022/03/21 00:47:14;;;;;;;28.77;16.05;;;6.90;99.90;;;;;;5052319;28;20040;-69
2022/03/21 00:49:41;;;;;;;25.40;14.88;;;6.90;99.90;;;;;;5050205;28;20068;-69
2022/03/21 00:52:07;;;;;;;29.55;14.50;;;6.80;99.90;;;;;;5051136;28;20032;-69
2022/03/21 00:54:32;;;;;;;29.33;15.00;;;6.90;99.90;;;;;;5051097;28;20041;-69
2022/03/21 00:56:58;;;;;;;26.48;14.55;;;6.90;99.90;;;;;;5050468;28;20047;-69
2022/03/21 00:59:23;;;;;;;25.02;13.18;;;6.90;99.90;;;;;;5052482;28;20033;-69
2022/03/21 01:01:50;;;;;;;22.20;13.05;;;6.90;99.90;;;;;;5051365;28;20045;-69
2022/03/21 01:04:15;;;;;;;27.90;12.48;;;6.90;99.90;;;;;;5033790;28;20099;-69
2022/03/21 01:06:41;;;;;;;26.80;13.63;;;6.90;99.90;;;;;;5051802;28;20044;-67
2022/03/21 01:09:06;;;;;;;24.85;12.85;;;6.90;99.90;;;;;;5054618;28;20048;-68
2022/03/21 01:11:32;;;;;;;22.48;12.32;;;6.90;99.90;;;;;;5071566;28;20092;-68
2022/03/21 01:13:57;;;;;;;22.70;12.55;;;6.90;99.90;;;;;;5060468;28;20127;-69
2022/03/21 01:16:23;;;;;;;24.90;13.15;;;6.90;99.90;;;;;;5050367;28;20040;-68
2022/03/21 01:18:48;;;;;;;23.42;12.13;;;6.90;99.90;;;;;;5051273;28;20044;-69
2022/03/21 01:21:14;;;;;;;27.63;13.48;;;6.90;99.90;;;;;;5049961;28;20679;-68
2022/03/21 01:23:40;;;;;;;26.05;13.52;;;6.90;99.90;;;;;;5049467;28;20053;-68
2022/03/21 01:26:05;;;;;;;21.20;12.50;;;6.90;99.90;;;;;;5050192;28;20124;-71
2022/03/21 01:28:31;;;;;;;24.58;13.30;;;6.90;99.90;;;;;;5051387;28;20041;-70
2022/03/21 01:30:56;;;;;;;23.45;13.10;;;6.90;99.90;;;;;;5050068;28;20120;-70
2022/03/21 01:33:22;;;;;;;25.45;13.38;;;6.90;99.90;;;;;;5050247;28;20079;-69
2022/03/21 01:35:48;;;;;;;23.42;12.68;;;6.80;99.90;;;;;;5051047;28;20552;-70
2022/03/21 01:38:13;;;;;;;28.95;14.38;;;6.80;99.90;;;;;;5049826;28;20041;-69
2022/03/21 01:40:39;;;;;;;25.38;13.23;;;6.80;99.90;;;;;;5051146;28;20577;-70
2022/03/21 01:43:11;;;;;;;26.40;13.45;;;6.80;99.90;;;;;;5049980;28;20083;-70
2022/03/21 01:45:37;;;;;;;22.08;12.07;;;6.80;99.90;;;;;;5051168;28;20051;-69
2022/03/21 01:48:03;;;;;;;28.17;12.38;;;6.80;99.90;;;;;;5052412;28;20382;-69
2022/03/21 01:50:29;;;;;;;24.20;13.35;;;6.80;99.90;;;;;;5074366;28;20046;-69
2022/03/21 01:55:43;;;;;;;25.15;14.10;;;6.70;99.90;;;;;;5050949;28;20114;-70
2022/03/21 01:58:11;;;;;;;26.90;14.35;;;6.70;99.90;;;;;;5051048;28;20047;-70
2022/03/21 02:00:37;;;;;;;25.95;15.05;;;6.70;99.90;;;;;;5051066;28;20033;-70
2022/03/21 02:03:03;;;;;;;25.10;13.27;;;6.70;99.90;;;;;;5050362;28;20045;-70
2022/03/21 02:05:29;;;;;;;27.10;14.02;;;6.70;99.90;;;;;;5051024;28;20033;-70
2022/03/21 02:07:55;;;;;;;26.27;12.63;;;6.70;99.90;;;;;;5050627;28;20259;-70
2022/03/21 02:10:21;;;;;;;26.27;13.73;;;6.70;99.90;;;;;;5050828;28;20639;-70
2022/03/21 02:12:46;;;;;;;24.00;14.25;;;6.70;99.90;;;;;;5050039;28;20408;-70
2022/03/21 02:15:12;;;;;;;29.92;13.80;;;6.60;99.90;;;;;;5050354;28;20068;-70
2022/03/21 02:17:41;;;;;;;21.17;12.52;;;6.60;99.90;;;;;;5050645;28;20033;-70
2022/03/21 02:20:07;;;;;;;22.10;13.25;;;6.60;99.90;;;;;;5051229;28;20045;-69
2022/03/21 02:22:37;;;;;;;28.55;14.73;;;6.60;99.90;;;;;;5060919;28;20025;-69
2022/03/21 02:25:18;;;;;;;26.33;13.75;;;6.60;99.90;;;;;;5069967;28;20043;-69
2022/03/21 02:27:46;;;;;;;23.25;13.82;;;6.60;99.90;;;;;;5050994;28;20149;-70
2022/03/21 02:30:12;;;;;;;24.10;13.40;;;6.60;99.90;;;;;;5050566;28;20029;-70
2022/03/21 02:32:38;;;;;;;23.25;12.77;;;6.60;99.90;;;;;;5049425;28;20056;-70
2022/03/21 02:35:05;;;;;;;23.77;12.98;;;6.50;99.90;;;;;;5048479;28;20061;-70
2022/03/21 02:37:31;;;;;;;22.52;13.57;;;6.50;99.90;;;;;;5050242;28;20076;-70
2022/03/21 02:39:58;;;;;;;26.25;14.00;;;6.60;99.90;;;;;;5048774;28;20053;-70
2022/03/21 02:42:24;;;;;;;27.88;12.77;;;6.60;99.90;;;;;;5049508;28;20044;-69
2022/03/21 02:44:49;;;;;;;21.88;12.57;;;6.50;99.90;;;;;;5050382;28;20059;-69
2022/03/21 02:47:15;;;;;;;22.05;13.13;;;6.50;99.90;;;;;;5050338;28;20458;-70
2022/03/21 02:49:41;;;;;;;24.05;13.55;;;6.50;99.90;;;;;;5050143;28;20052;-70
2022/03/21 02:52:09;;;;;;;23.63;13.05;;;6.50;99.90;;;;;;5048497;28;20041;-68
2022/03/21 02:54:35;;;;;;;23.55;13.25;;;6.40;99.90;;;;;;5049906;28;20335;-70
2022/03/21 02:57:01;;;;;;;28.58;13.55;;;6.30;99.90;;;;;;5049935;28;20099;-68
2022/03/21 02:59:27;;;;;;;24.95;12.85;;;6.40;99.90;;;;;;5048701;28;20045;-69
2022/03/21 03:01:56;;;;;;;22.98;12.30;;;6.30;99.90;;;;;;5048080;28;20461;-69
2022/03/21 03:04:24;;;;;;;27.17;13.43;;;6.20;99.90;;;;;;5050940;28;20045;-69
2022/03/21 03:06:50;;;;;;;27.90;13.90;;;6.20;99.90;;;;;;5054254;28;20387;-69
2022/03/21 03:09:15;;;;;;;24.17;13.85;;;6.20;99.90;;;;;;5054238;28;20048;-69
2022/03/21 03:11:41;;;;;;;27.77;13.02;;;6.20;99.90;;;;;;5054460;28;20435;-68
2022/03/21 03:14:07;;;;;;;20.75;12.25;;;6.30;99.90;;;;;;5077795;28;20045;-68
2022/03/21 03:16:34;;;;;;;23.27;12.68;;;6.20;99.90;;;;;;5073649;28;20048;-69
2022/03/21 03:18:59;;;;;;;24.45;12.18;;;6.20;99.90;;;;;;5052763;28;20048;-69
2022/03/21 03:21:26;;;;;;;23.55;12.32;;;6.10;99.90;;;;;;5054298;28;20041;-69
2022/03/21 03:23:53;;;;;;;22.90;12.82;;;6.00;99.90;;;;;;5053363;28;20350;-71
2022/03/21 03:26:19;;;;;;;21.85;12.10;;;5.90;99.90;;;;;;5053713;28;20033;-71
2022/03/21 03:28:45;;;;;;;26.50;13.50;;;5.90;99.90;;;;;;5052316;28;20064;-69
2022/03/21 03:31:13;;;;;;;25.63;13.30;;;5.90;99.90;;;;;;5053566;28;20115;-69
2022/03/21 03:33:39;;;;;;;26.63;13.38;;;5.80;99.90;;;;;;5052004;28;20167;-69
2022/03/21 03:36:05;;;;;;;20.88;12.05;;;5.90;99.90;;;;;;5072361;28;20052;-69
2022/03/21 03:38:31;;;;;;;31.77;13.43;;;5.90;99.90;;;;;;5069419;28;20136;-69
2022/03/21 03:40:57;;;;;;;23.08;13.10;;;5.80;99.90;;;;;;5053610;28;20513;-69
2022/03/21 03:43:23;;;;;;;21.42;12.82;;;5.80;99.90;;;;;;5052647;28;20116;-69
2022/03/21 03:45:52;;;;;;;24.30;13.02;;;5.80;99.90;;;;;;5052035;28;20033;-69
2022/03/21 03:48:20;;;;;;;28.83;12.98;;;5.80;99.90;;;;;;5051522;28;20075;-69
2022/03/21 03:50:45;;;;;;;23.08;12.85;;;5.70;99.90;;;;;;5053275;28;20409;-70
2022/03/21 03:53:11;;;;;;;23.92;13.13;;;5.70;99.90;;;;;;5051198;28;20033;-70
2022/03/21 03:55:37;;;;;;;24.88;13.30;;;5.80;99.90;;;;;;5053210;28;20115;-70
2022/03/21 03:58:02;;;;;;;19.83;11.95;;;5.70;99.90;;;;;;5053257;28;20037;-70
2022/03/21 04:00:28;;;;;;;21.92;12.90;;;5.60;99.90;;;;;;5052789;28;20072;-70
2022/03/21 04:05:38;;;;;;;25.13;12.80;;;5.50;99.90;;;;;;5051731;28;20052;-70
2022/03/21 04:08:04;;;;;;;23.33;13.43;;;5.40;99.90;;;;;;5051496;28;20045;-70
2022/03/21 04:10:30;;;;;;;21.27;11.73;;;5.40;99.90;;;;;;5052753;28;20068;-70
2022/03/21 04:12:55;;;;;;;26.77;12.10;;;5.30;99.90;;;;;;5050678;28;20092;-70
2022/03/21 04:15:22;;;;;;;19.58;12.10;;;5.20;99.90;;;;;;5050618;28;20097;-70
2022/03/21 04:17:49;;;;;;;23.60;12.50;;;5.20;99.90;;;;;;5052980;28;20102;-70
2022/03/21 04:20:15;;;;;;;23.02;12.73;;;5.10;99.90;;;;;;5052703;28;20049;-70
2022/03/21 04:22:40;;;;;;;25.25;12.85;;;5.10;99.90;;;;;;5050847;28;20053;-70
2022/03/21 04:25:10;;;;;;;20.85;12.25;;;5.10;99.90;;;;;;5053026;28;20044;-69
2022/03/21 04:27:36;;;;;;;25.55;12.45;;;5.00;99.90;;;;;;5051297;28;20041;-69
2022/03/21 04:30:02;;;;;;;21.92;12.00;;;4.90;99.90;;;;;;5052560;28;20048;-69
2022/03/21 04:32:28;;;;;;;18.65;10.52;;;4.90;99.90;;;;;;5051939;28;20120;-69
2022/03/21 04:34:54;;;;;;;16.38;8.85;;;4.80;99.90;;;;;;5052943;28;20468;-69
2022/03/21 04:37:19;;;;;;;14.57;8.80;;;4.80;99.90;;;;;;5069974;28;20109;-69
2022/03/21 04:39:45;;;;;;;15.23;8.85;;;4.80;99.90;;;;;;5075339;28;20041;-69
2022/03/21 04:42:10;;;;;;;16.63;9.60;;;4.80;99.90;;;;;;5055310;28;20482;-69
2022/03/21 04:44:36;;;;;;;19.73;9.50;;;4.70;99.90;;;;;;5051424;28;20053;-69
2022/03/21 04:47:02;;;;;;;21.02;9.63;;;4.70;99.90;;;;;;5054558;28;20056;-69
2022/03/21 04:49:28;;;;;;;15.48;9.48;;;4.60;99.90;;;;;;5071972;28;20105;-69
2022/03/21 04:51:54;;;;;;;18.70;10.02;;;4.60;99.90;;;;;;5060925;28;20582;-69
2022/03/21 04:54:19;;;;;;;15.98;9.15;;;4.60;99.90;;;;;;5052913;28;20409;-69
2022/03/21 04:56:45;;;;;;;15.52;9.05;;;4.60;99.90;;;;;;5052116;28;20460;-69
2022/03/21 04:59:10;;;;;;;18.10;9.70;;;4.50;99.90;;;;;;5052475;28;20091;-69
2022/03/21 05:01:36;;;;;;;16.35;9.32;;;4.50;99.90;;;;;;5050549;28;20053;-69
2022/03/21 05:04:02;;;;;;;22.42;11.02;;;4.40;99.90;;;;;;5051472;28;20123;-68
2022/03/21 05:06:28;;;;;;;25.00;11.20;;;4.50;99.90;;;;;;5066608;28;20071;-68
2022/03/21 05:08:54;;;;;;;22.90;10.93;;;4.50;99.90;;;;;;5051979;28;20439;-68
2022/03/21 05:11:19;;;;;;;26.15;12.07;;;4.50;99.90;;;;;;5051884;28;20401;-69
2022/03/21 05:13:45;;;;;;;25.08;11.13;;;4.50;99.90;;;;;;5051084;28;20048;-68
2022/03/21 05:16:10;;;;;;;19.08;11.80;;;4.40;99.90;;;;;;5051495;28;20037;-68
2022/03/21 05:18:36;;;;;;;20.90;10.98;;;4.40;99.90;;;;;;5051550;28;20402;-68
2022/03/21 05:21:03;;;;;;;23.10;10.80;;;4.30;99.90;;;;;;5051512;28;20182;-68
2022/03/21 05:31:41;;;;;;;23.95;11.82;;;4.20;99.90;;;;;;5049091;28;20045;-68
2022/03/21 05:36:53;;;;;;;26.10;13.38;;;4.20;99.90;;;;;;5043916;28;20144;-68
2022/03/21 05:39:18;;;;;;;27.88;12.77;;;4.10;99.90;;;;;;5051314;28;20052;-68
2022/03/21 05:41:44;;;;;;;24.08;12.90;;;4.20;99.90;;;;;;5030646;28;20048;-68
2022/03/21 05:44:11;;;;;;;24.50;12.77;;;4.10;99.90;;;;;;5048010;28;20136;-70
2022/03/21 05:46:37;;;;;;;23.05;11.30;;;4.20;99.90;;;;;;5049978;28;20040;-70
2022/03/21 05:49:03;;;;;;;21.92;11.60;;;4.00;99.90;;;;;;5051161;28;20049;-68
2022/03/21 05:51:31;;;;;;;24.85;11.90;;;4.00;99.90;;;;;;5051344;28;20078;-68
2022/03/21 05:53:59;;;;;;;15.70;9.50;;;4.00;99.90;;;;;;5050602;28;20037;-68
2022/03/21 05:56:27;;;;;;;10.15;6.55;;;4.00;99.90;;;;;;5051404;28;20155;-68
2022/03/21 05:58:53;;;;;;;14.73;8.05;;;3.80;99.90;;;;;;5050967;28;20044;-68
2022/03/21 06:01:21;;;;;;;7.55;5.50;;;3.60;99.90;;;;;;5053749;28;20049;-67
2022/03/21 06:03:48;;;;;;;9.13;5.93;;;3.60;99.90;;;;;;5065139;28;20041;-67
2022/03/21 06:06:15;;;;;;;8.68;5.45;;;3.70;99.90;;;;;;5072384;28;20079;-67
2022/03/21 06:08:41;;;;;;;7.65;5.72;;;3.60;99.90;;;;;;5054412;28;20049;-68
2022/03/21 06:11:08;;;;;;;8.63;6.57;;;3.50;99.90;;;;;;5051525;28;20048;-67
2022/03/21 06:13:39;;;;;;;12.02;6.18;;;3.50;99.90;;;;;;5050044;28;20497;-68
2022/03/21 06:16:06;;;;;;;6.40;5.40;;;3.20;99.90;;;;;;5048853;28;20052;-68
2022/03/21 06:18:33;;;;;;;5.88;4.65;;;3.30;99.90;;;;;;5050461;28;20155;-68
2022/03/21 06:21:00;;;;;;;7.22;5.50;;;3.40;99.90;;;;;;5050620;28;20089;-68
2022/03/21 06:23:27;;;;;;;5.43;4.47;;;3.30;99.90;;;;;;5049785;28;20126;-68
2022/03/21 06:25:58;;;;;;;6.30;4.82;;;3.30;99.90;;;;;;5050490;28;20076;-69
2022/03/21 06:28:26;;;;;;;6.85;5.20;;;3.30;99.90;;;;;;5050650;28;20045;-69
2022/03/21 06:30:53;;;;;;;9.60;6.22;;;3.40;99.90;;;;;;5050365;28;20076;-69
2022/03/21 06:33:21;;;;;;;13.05;7.97;;;3.40;99.90;;;;;;5049612;28;20140;-69
2022/03/21 06:35:46;;;;;;;15.18;9.20;;;3.60;99.90;;;;;;5048916;28;20048;-69
2022/03/21 06:38:12;;;;;;;18.23;9.00;;;3.60;99.90;;;;;;5049831;28;20549;-69
2022/03/21 06:40:39;;;;;;;22.10;10.88;;;3.70;99.90;;;;;;5050162;28;20076;-69
2022/03/21 06:43:05;;;;;;;18.45;10.65;;;3.90;99.90;;;;;;5049550;28;20374;-69
2022/03/21 06:45:31;;;;;;;20.92;10.55;;;4.00;99.90;;;;;;5050178;28;20037;-71
2022/03/21 06:47:57;;;;;;;17.38;10.65;;;4.10;99.90;;;;;;5050228;28;20088;-69
2022/03/21 06:50:23;;;;;;;17.88;9.98;;;4.20;99.90;;;;;;5050038;28;20091;-69
2022/03/21 06:52:49;;;;;;;19.65;11.38;;;4.30;99.90;;;;;;5048061;28;20044;-69
2022/03/21 06:55:15;;;;;;;18.30;11.02;;;4.50;99.90;;;;;;5048734;28;20045;-70
2022/03/21 06:57:40;;;;;;;17.55;10.98;;;4.50;99.90;;;;;;5049978;28;20047;-70
2022/03/21 07:00:07;;;;;;;18.90;11.35;;;4.50;99.90;;;;;;5050563;28;20073;-70
2022/03/21 07:02:34;;;;;;;20.90;10.75;;;4.60;99.90;;;;;;5049956;28;20124;-70
2022/03/21 07:05:00;;;;;;;17.70;11.02;;;4.70;99.90;;;;;;5050935;28;20068;-70
2022/03/21 07:07:26;;;;;;;19.48;10.00;;;4.70;99.90;;;;;;5050749;28;20504;-69
2022/03/21 07:09:52;;;;;;;16.27;9.48;;;4.80;99.90;;;;;;5048640;28;20109;-70
2022/03/21 07:12:19;;;;;;;20.08;10.85;;;5.00;99.90;;;;;;5054991;28;20037;-70
2022/03/21 07:14:46;;;;;;;15.85;10.25;;;5.00;99.90;;;;;;5067315;28;20092;-70
2022/03/21 07:17:12;;;;;;;15.55;9.90;;;5.00;99.90;;;;;;5038318;28;20486;-70
2022/03/21 07:19:37;;;;;;;19.92;11.25;;;5.00;99.90;;;;;;5050391;28;20041;-70
2022/03/21 07:22:03;;;;;;;21.65;11.75;;;5.10;99.90;;;;;;5049948;28;20184;-69
2022/03/21 07:24:29;;;;;;;26.17;13.75;;;5.20;99.90;;;;;;5068808;28;20048;-69
2022/03/21 07:26:55;;;;;;;24.05;13.90;;;5.30;99.90;;;;;;5073035;28;20060;-70
2022/03/21 07:29:20;;;;;;;28.27;15.80;;;5.50;99.90;;;;;;5052867;28;20074;-70
2022/03/21 07:31:46;;;;;;;26.52;14.73;;;5.60;99.90;;;;;;5051687;28;20041;-70
2022/03/21 07:34:13;;;;;;;24.38;14.48;;;5.70;99.90;;;;;;5049369;28;20033;-71
2022/03/21 07:36:39;;;;;;;28.50;15.27;;;5.80;99.90;;;;;;5048708;28;20404;-70
2022/03/21 07:39:05;;;;;;;30.00;15.30;;;5.90;99.90;;;;;;5048369;28;20049;-70
2022/03/21 07:41:31;;;;;;;27.15;15.25;;;6.10;99.90;;;;;;5048573;28;20485;-70
2022/03/21 07:43:57;;;;;;;24.83;14.50;;;6.20;99.90;;;;;;5049279;28;20120;-70
2022/03/21 07:49:08;;;;;;;34.10;16.85;;;6.40;99.90;;;;;;5049697;28;20056;-70
2022/03/21 07:51:34;;;;;;;41.03;17.30;;;6.60;99.90;;;;;;5051940;28;20124;-70
2022/03/21 07:53:59;;;;;;;31.52;16.65;;;6.80;99.90;;;;;;5052700;28;20188;-70
2022/03/21 07:56:25;;;;;;;30.73;17.65;;;6.90;99.90;;;;;;5053359;28;20512;-70
2022/03/21 07:58:51;;;;;;;29.88;16.33;;;7.00;99.90;;;;;;5053040;28;20044;-70
2022/03/21 08:01:18;;;;;;;35.38;17.00;;;7.00;99.90;;;;;;5052871;28;20033;-70
2022/03/21 08:03:46;;;;;;;30.88;16.73;;;7.20;99.90;;;;;;5052525;28;20037;-70
2022/03/21 08:06:12;;;;;;;29.90;15.70;;;7.20;99.90;;;;;;5053194;28;20041;-70
2022/03/21 08:08:38;;;;;;;30.80;15.23;;;7.30;99.90;;;;;;5052779;28;20087;-70
2022/03/21 08:11:05;;;;;;;25.98;15.60;;;7.40;99.90;;;;;;5052946;28;20048;-68
2022/03/21 08:13:31;;;;;;;25.65;14.88;;;7.50;99.90;;;;;;5052129;28;20048;-68
2022/03/21 08:15:59;;;;;;;26.50;15.45;;;7.40;99.90;;;;;;5052597;28;20056;-68
2022/03/21 08:18:25;;;;;;;31.15;16.02;;;7.60;99.90;;;;;;5052968;28;20045;-68
2022/03/21 08:20:50;;;;;;;32.78;15.95;;;7.60;99.90;;;;;;5052746;28;20458;-69
2022/03/21 08:23:16;;;;;;;30.17;15.50;;;7.90;99.90;;;;;;5052800;28;20044;-71
2022/03/21 08:25:45;;;;;;;29.05;16.20;;;7.80;99.90;;;;;;5073342;28;20061;-73
2022/03/21 08:28:11;;;;;;;29.05;14.60;;;7.90;99.90;;;;;;5066413;28;20052;-73
2022/03/21 08:30:38;;;;;;;33.17;15.52;;;8.00;99.90;;;;;;5052697;28;20040;-73
2022/03/21 08:33:06;;;;;;;25.42;14.23;;;8.20;99.90;;;;;;5051809;28;20124;-74
2022/03/21 08:35:35;;;;;;;29.00;15.52;;;8.20;99.90;;;;;;5053651;28;20094;-74
2022/03/21 08:38:00;;;;;;;27.27;14.88;;;8.30;99.90;;;;;;5052079;28;20213;-73
2022/03/21 08:40:26;;;;;;;31.25;15.35;;;8.30;99.90;;;;;;5053572;28;20545;-74
2022/03/21 08:42:52;;;;;;;27.38;15.20;;;8.50;99.90;;;;;;5062480;28;20120;-74
2022/03/21 08:45:18;;;;;;;26.83;14.82;;;8.50;99.90;;;;;;5075934;28;20032;-74
2022/03/21 08:47:44;;;;;;;28.52;14.45;;;8.50;99.90;;;;;;5077865;28;20033;-74
2022/03/21 08:50:10;;;;;;;24.55;13.85;;;8.70;99.90;;;;;;5060167;28;20049;-74
2022/03/21 08:52:36;;;;;;;30.13;15.07;;;8.70;99.90;;;;;;5033503;28;20055;-74
2022/03/21 08:55:04;;;;;;;27.02;14.98;;;8.90;99.90;;;;;;5051991;28;20501;-74
2022/03/21 08:57:30;;;;;;;25.65;14.20;;;9.00;99.90;;;;;;5052115;28;20402;-74
2022/03/21 08:59:56;;;;;;;26.35;15.15;;;9.00;99.90;;;;;;5050699;28;20037;-74
2022/03/21 09:02:21;;;;;;;29.40;15.07;;;9.10;99.90;;;;;;5060421;28;20047;-73
2022/03/21 09:04:47;;;;;;;27.55;14.75;;;9.20;99.90;;;;;;5071040;28;20148;-73
2022/03/21 09:07:13;;;;;;;30.50;15.68;;;9.20;99.90;;;;;;5071529;28;20155;-74
2022/03/21 09:09:39;;;;;;;25.48;16.45;;;9.20;99.90;;;;;;5068436;28;20106;-75
2022/03/21 09:12:05;;;;;;;26.38;15.20;;;9.30;99.90;;;;;;5048958;28;20045;-74
2022/03/21 09:14:31;;;;;;;28.52;14.70;;;9.40;99.90;;;;;;5051013;28;20069;-74
2022/03/21 09:16:57;;;;;;;26.08;15.77;;;9.50;99.90;;;;;;5058957;28;20079;-73
2022/03/21 09:19:23;;;;;;;29.58;15.38;;;9.40;99.90;;;;;;5069942;28;20059;-73
2022/03/21 09:21:51;;;;;;;27.60;15.38;;;9.40;99.90;;;;;;5069537;28;20159;-74
2022/03/21 09:24:16;;;;;;;24.42;14.40;;;9.50;99.90;;;;;;5070108;28;20049;-73
2022/03/21 09:26:42;;;;;;;27.77;15.05;;;9.60;99.90;;;;;;5070798;28;20048;-73
2022/03/21 09:29:09;;;;;;;28.17;15.27;;;9.70;99.90;;;;;;5071494;28;20112;-75
2022/03/21 09:31:41;;;;;;;24.10;15.05;;;9.80;99.90;;;;;;5066525;28;20037;-75
2022/03/21 09:34:13;;;;;;;34.95;17.98;;;9.90;99.90;;;;;;5059674;28;20124;-74
2022/03/21 09:36:39;;;;;;;29.03;16.97;;;10.10;99.90;;;;;;5075793;28;20112;-75
2022/03/21 09:39:06;;;;;;;30.95;15.73;;;10.10;99.90;;;;;;5051809;28;20291;-74
2022/03/21 09:41:32;;;;;;;28.58;16.30;;;10.10;99.90;;;;;;5051776;28;20044;-75
2022/03/21 09:44:01;;;;;;;31.88;17.13;;;10.30;99.90;;;;;;5061321;28;20041;-74
2022/03/21 09:46:26;;;;;;;29.08;16.70;;;10.30;99.90;;;;;;5062053;28;20032;-75
2022/03/21 09:48:54;;;;;;;37.38;17.08;;;10.30;99.90;;;;;;5059315;28;20033;-75
2022/03/21 09:51:27;;;;;;;28.88;15.40;;;10.30;99.90;;;;;;5061136;28;20094;-73
2022/03/21 09:53:58;;;;;;;32.35;17.45;;;10.30;99.90;;;;;;5069318;28;20564;-71
2022/03/21 09:56:25;;;;;;;34.50;17.50;;;10.30;99.90;;;;;;5071689;28;20135;-72
2022/03/21 09:58:53;;;;;;;30.75;17.25;;;10.70;99.90;;;;;;5070027;28;20036;-72
2022/03/21 10:01:18;;;;;;;30.08;16.55;;;10.70;99.90;;;;;;5070152;28;20056;-72
2022/03/21 10:03:44;;;;;;;33.58;17.23;;;10.70;99.90;;;;;;5072024;28;20048;-71
2022/03/21 10:06:30;;;;;;;31.00;17.33;;;10.70;99.90;;;;;;5089693;28;20032;-71
2022/03/21 10:09:06;;;;;;;29.85;17.35;;;10.80;99.90;;;;;;5091262;28;20048;-73
2022/03/21 10:11:32;;;;;;;33.60;18.00;;;10.90;99.90;;;;;;5067751;28;20112;-72
2022/03/21 10:14:00;;;;;;;30.63;16.63;;;10.90;99.90;;;;;;5068242;28;20044;-72
2022/03/21 10:16:26;;;;;;;37.55;18.55;;;11.00;99.90;;;;;;5069415;28;20071;-72
2022/03/21 10:18:54;;;;;;;32.30;17.38;;;10.90;99.90;;;;;;5070358;28;20133;-72
2022/03/21 10:21:24;;;;;;;33.72;18.48;;;11.10;99.90;;;;;;5069329;28;20086;-72
2022/03/21 10:24:05;;;;;;;32.55;18.02;;;11.10;99.90;;;;;;5068660;28;20131;-72
2022/03/21 10:26:34;;;;;;;35.53;19.38;;;11.00;99.90;;;;;;5069250;28;20044;-73
2022/03/21 10:29:05;;;;;;;40.30;20.10;;;11.00;99.90;;;;;;5068890;28;20527;-72
2022/03/21 10:31:47;;;;;;;34.15;18.48;;;11.10;99.90;;;;;;5070201;28;20435;-73
2022/03/21 10:34:16;;;;;;;43.03;20.77;;;11.00;99.90;;;;;;5068914;28;20508;-73
2022/03/21 10:37:08;;;;;;;36.20;19.23;;;11.10;99.90;;;;;;5068980;28;20493;-73
2022/03/21 10:39:51;;;;;;;32.50;18.67;;;11.10;99.90;;;;;;5061128;28;20076;-72
2022/03/21 10:42:16;;;;;;;43.00;20.63;;;11.30;99.90;;;;;;5048387;28;20044;-72
2022/03/21 10:44:54;;;;;;;38.13;19.55;;;11.20;99.90;;;;;;5050337;28;20120;-72
2022/03/21 10:47:19;;;;;;;33.30;19.00;;;11.50;99.90;;;;;;5060884;28;20041;-71
2022/03/21 10:49:45;;;;;;;38.58;20.58;;;11.60;99.90;;;;;;5051952;28;20056;-73
2022/03/21 10:52:18;;;;;;;42.63;21.15;;;11.60;99.90;;;;;;5031454;28;20049;-72
2022/03/21 10:54:49;;;;;;;41.42;20.63;;;11.70;99.90;;;;;;5048901;28;20609;-72
2022/03/21 10:57:34;;;;;;;34.80;20.05;;;11.60;99.90;;;;;;5048568;28;20049;-73
2022/03/21 11:00:27;;;;;;;45.47;21.30;;;11.80;99.90;;;;;;5048970;28;20041;-73
2022/03/21 11:02:52;;;;;;;38.05;19.27;;;11.60;99.90;;;;;;5045202;28;20509;-73
2022/03/21 11:05:19;;;;;;;22.85;11.40;;;11.70;99.90;;;;;;5049889;28;20064;-69
2022/03/21 11:07:45;;;;;;;38.67;20.17;;;11.90;99.90;;;;;;5031190;28;20064;-71
2022/03/21 11:10:11;;;;;;;39.40;20.60;;;12.10;99.90;;;;;;5050299;28;20033;-70
2022/03/21 11:12:39;;;;;;;33.70;19.67;;;12.10;99.90;;;;;;5048513;28;20041;-72
2022/03/21 11:15:06;;;;;;;35.53;21.25;;;12.10;99.90;;;;;;5049114;28;20067;-71
2022/03/21 11:17:32;;;;;;;40.63;20.90;;;12.20;99.90;;;;;;5050094;28;20059;-72
2022/03/21 11:20:01;;;;;;;39.90;20.63;;;12.30;99.90;;;;;;5049921;28;20607;-72
2022/03/21 11:22:28;;;;;;;38.42;19.40;;;12.30;99.90;;;;;;5049753;28;20622;-72
2022/03/21 11:24:54;;;;;;;38.13;20.50;;;12.40;99.90;;;;;;5061105;28;20040;-70
2022/03/21 11:27:38;;;;;;;39.33;20.80;;;12.60;99.90;;;;;;5061056;28;20106;-71
2022/03/21 11:30:18;;;;;;;37.80;20.63;;;12.70;99.90;;;;;;5060887;28;20049;-73
2022/03/21 11:33:02;;;;;;;33.70;20.27;;;12.80;99.90;;;;;;5052844;28;20037;-72
2022/03/21 11:35:29;;;;;;;39.75;20.48;;;12.70;99.90;;;;;;5053703;28;20144;-73
2022/03/21 11:38:27;;;;;;;41.70;21.15;;;12.70;99.90;;;;;;5052490;28;20408;-72
2022/03/21 11:41:10;;;;;;;40.65;20.90;;;12.70;99.90;;;;;;5051870;28;20086;-72
2022/03/21 11:43:37;;;;;;;40.08;21.08;;;12.70;99.90;;;;;;5051194;28;20087;-72
2022/03/21 11:46:25;;;;;;;36.35;20.50;;;12.80;99.90;;;;;;5035218;28;20049;-72
2022/03/21 11:48:53;;;;;;;38.08;20.00;;;12.80;99.90;;;;;;5054006;28;20044;-72
2022/03/21 11:51:18;;;;;;;38.45;20.17;;;12.90;99.90;;;;;;5061914;28;20049;-71
2022/03/21 11:53:53;;;;;;;39.55;21.95;;;13.00;99.90;;;;;;5061738;28;20086;-72
2022/03/21 11:56:45;;;;;;;36.38;20.30;;;13.00;99.90;;;;;;5060557;28;20041;-74
2022/03/21 11:59:32;;;;;;;40.35;21.30;;;13.00;99.90;;;;;;5063461;28;20067;-72
2022/03/21 12:02:07;;;;;;;36.40;21.13;;;13.00;99.90;;;;;;5048577;28;20113;-73
2022/03/21 12:04:35;;;;;;;40.38;20.33;;;13.00;99.90;;;;;;5054658;28;20079;-69
2022/03/21 12:07:20;;;;;;;35.28;20.58;;;13.20;99.90;;;;;;5072942;28;20098;-69
2022/03/21 12:09:53;;;;;;;39.38;21.48;;;13.40;99.90;;;;;;5071331;28;20242;-70
2022/03/21 12:12:40;;;;;;;35.28;20.63;;;13.40;99.90;;;;;;5072319;28;20037;-69
2022/03/21 12:15:31;;;;;;;34.30;20.38;;;13.50;99.90;;;;;;5072840;28;20169;-70
2022/03/21 12:17:57;;;;;;;37.63;20.30;;;13.50;99.90;;;;;;5071224;28;20036;-68
2022/03/21 12:20:23;;;;;;;38.30;20.60;;;13.30;99.90;;;;;;5071257;28;20036;-69
2022/03/21 12:22:50;;;;;;;35.53;19.55;;;13.40;99.90;;;;;;5071748;28;20036;-69
2022/03/21 12:25:42;;;;;;;37.95;20.48;;;13.40;99.90;;;;;;5071260;28;20040;-69
2022/03/21 12:31:21;;;;;;;36.67;20.17;;;13.50;99.90;;;;;;5072652;28;20044;-69
2022/03/21 12:33:46;;;;;;;39.33;21.75;;;13.50;99.90;;;;;;5070985;28;20095;-69
2022/03/21 12:36:30;;;;;;;38.75;21.33;;;13.60;99.90;;;;;;5071667;28;20512;-69
2022/03/21 12:38:56;;;;;;;38.08;20.88;;;13.50;99.90;;;;;;5072192;28;20500;-69
2022/03/21 12:41:21;;;;;;;40.08;20.38;;;13.60;99.20;;;;;;5071891;28;20040;-73
2022/03/21 12:43:52;;;;;;;45.42;21.98;;;13.60;99.90;;;;;;5071012;28;20052;-73
2022/03/21 12:46:20;;;;;;;33.90;19.60;;;13.70;99.90;;;;;;5095903;28;20039;-71
2022/03/21 12:48:49;;;;;;;41.30;21.35;;;13.70;99.90;;;;;;5093740;28;20043;-73
2022/03/21 12:51:24;;;;;;;35.00;20.88;;;13.70;99.90;;;;;;5072220;28;20366;-72
2022/03/21 12:53:49;;;;;;;37.63;21.88;;;13.70;99.90;;;;;;5071381;28;20043;-72
2022/03/21 12:56:17;;;;;;;37.83;20.67;;;13.60;99.90;;;;;;5072322;28;20024;-72
2022/03/21 12:58:49;;;;;;;39.17;19.98;;;13.60;99.90;;;;;;5071050;28;20090;-71
2022/03/21 13:10:34;;;;;;;37.75;20.52;;;13.80;99.90;;;;;;5071009;28;20040;-72